Clima Ilopango International Airport
Currently
Currently
Currently
METAR
MSSS 170325Z 1706/1806 34005KT CAVOK TX30/1720Z TN22/1712Z FM171800 18010KT 9999 SCT030 FEW040CB FM180000 02005KT CAVOK
TAF
MSSS 170325Z 1706/1806 34005KT CAVOK TX30/1720Z TN22/1712Z FM171800 18010KT 9999 SCT030 FEW040CB FM180000 02005KT CAVOK

Cámaras Aeroclub

Norte

Este

Sur

Oeste

AIS/AIP El Salvador

Autoridad de Aviación Civil (AAC) El Salvador

VER DOCUMENTO